sensor_id;sensor_type;location;lat;lon;timestamp;P1;durP1;ratioP1;P2;durP2;ratioP2
15812;SDS011;8007;51.404;6.304;2023-08-08T00:00:53;3.73;;;1.90;;
15812;SDS011;8007;51.404;6.304;2023-08-08T00:03:05;3.60;;;2.10;;
15812;SDS011;8007;51.404;6.304;2023-08-08T00:14:32;3.13;;;2.10;;
15812;SDS011;8007;51.404;6.304;2023-08-08T00:16:44;4.83;;;2.43;;
15812;SDS011;8007;51.404;6.304;2023-08-08T00:21:23;3.70;;;2.00;;
15812;SDS011;8007;51.404;6.304;2023-08-08T00:23:45;2.20;;;2.00;;
15812;SDS011;8007;51.404;6.304;2023-08-08T00:26:14;1.93;;;1.73;;
15812;SDS011;8007;51.404;6.304;2023-08-08T00:28:24;4.60;;;2.47;;
15812;SDS011;8007;51.404;6.304;2023-08-08T00:30:38;3.40;;;2.20;;
15812;SDS011;8007;51.404;6.304;2023-08-08T00:32:41;6.07;;;2.30;;
15812;SDS011;8007;51.404;6.304;2023-08-08T00:43:06;8.13;;;2.83;;
15812;SDS011;8007;51.404;6.304;2023-08-08T00:45:09;3.90;;;2.80;;
15812;SDS011;8007;51.404;6.304;2023-08-08T00:47:15;3.10;;;2.30;;
15812;SDS011;8007;51.404;6.304;2023-08-08T00:52:24;4.07;;;3.47;;
15812;SDS011;8007;51.404;6.304;2023-08-08T00:54:29;4.87;;;2.50;;
15812;SDS011;8007;51.404;6.304;2023-08-08T00:57:27;3.83;;;2.30;;
15812;SDS011;8007;51.404;6.304;2023-08-08T00:59:42;4.80;;;2.33;;
15812;SDS011;8007;51.404;6.304;2023-08-08T01:02:21;3.50;;;2.30;;
15812;SDS011;8007;51.404;6.304;2023-08-08T01:10:51;8.20;;;2.40;;
15812;SDS011;8007;51.404;6.304;2023-08-08T01:16:21;3.70;;;2.73;;
15812;SDS011;8007;51.404;6.304;2023-08-08T01:18:40;5.63;;;2.30;;
15812;SDS011;8007;51.404;6.304;2023-08-08T01:20:57;3.90;;;2.50;;
15812;SDS011;8007;51.404;6.304;2023-08-08T01:26:09;3.80;;;2.30;;
15812;SDS011;8007;51.404;6.304;2023-08-08T01:30:50;3.93;;;3.13;;
15812;SDS011;8007;51.404;6.304;2023-08-08T01:33:10;9.37;;;3.13;;
15812;SDS011;8007;51.404;6.304;2023-08-08T01:35:29;5.43;;;2.40;;
15812;SDS011;8007;51.404;6.304;2023-08-08T01:37:48;4.10;;;2.20;;
15812;SDS011;8007;51.404;6.304;2023-08-08T01:39:53;5.33;;;3.13;;
15812;SDS011;8007;51.404;6.304;2023-08-08T01:42:10;5.70;;;2.50;;
15812;SDS011;8007;51.404;6.304;2023-08-08T01:44:27;4.63;;;2.40;;
15812;SDS011;8007;51.404;6.304;2023-08-08T01:47:09;7.37;;;3.13;;
15812;SDS011;8007;51.404;6.304;2023-08-08T01:49:38;3.73;;;2.40;;
15812;SDS011;8007;51.404;6.304;2023-08-08T01:51:59;3.53;;;2.47;;
15812;SDS011;8007;51.404;6.304;2023-08-08T01:56:47;4.47;;;2.73;;
15812;SDS011;8007;51.404;6.304;2023-08-08T01:58:51;3.57;;;2.50;;
15812;SDS011;8007;51.404;6.304;2023-08-08T02:00:56;5.07;;;3.37;;
15812;SDS011;8007;51.404;6.304;2023-08-08T02:03:09;8.30;;;2.63;;
15812;SDS011;8007;51.404;6.304;2023-08-08T02:05:12;4.40;;;2.40;;
15812;SDS011;8007;51.404;6.304;2023-08-08T02:07:15;6.90;;;2.43;;
15812;SDS011;8007;51.404;6.304;2023-08-08T02:09:18;6.40;;;2.73;;
15812;SDS011;8007;51.404;6.304;2023-08-08T02:14:45;4.90;;;2.53;;
15812;SDS011;8007;51.404;6.304;2023-08-08T02:25:48;5.53;;;2.37;;
15812;SDS011;8007;51.404;6.304;2023-08-08T02:27:52;6.87;;;2.67;;
15812;SDS011;8007;51.404;6.304;2023-08-08T02:29:57;5.93;;;2.90;;
15812;SDS011;8007;51.404;6.304;2023-08-08T02:32:16;5.57;;;2.80;;
15812;SDS011;8007;51.404;6.304;2023-08-08T02:34:48;3.83;;;2.97;;
15812;SDS011;8007;51.404;6.304;2023-08-08T02:37:19;6.23;;;2.80;;
15812;SDS011;8007;51.404;6.304;2023-08-08T02:42:42;5.83;;;2.70;;
15812;SDS011;8007;51.404;6.304;2023-08-08T02:45:19;3.83;;;2.70;;
15812;SDS011;8007;51.404;6.304;2023-08-08T02:47:25;5.07;;;2.73;;
15812;SDS011;8007;51.404;6.304;2023-08-08T02:49:28;4.23;;;2.47;;
15812;SDS011;8007;51.404;6.304;2023-08-08T02:51:32;6.03;;;2.87;;
15812;SDS011;8007;51.404;6.304;2023-08-08T02:53:42;3.30;;;2.73;;
15812;SDS011;8007;51.404;6.304;2023-08-08T02:55:46;5.43;;;2.90;;
15812;SDS011;8007;51.404;6.304;2023-08-08T02:57:49;6.87;;;3.10;;
15812;SDS011;8007;51.404;6.304;2023-08-08T02:59:58;7.40;;;3.27;;
15812;SDS011;8007;51.404;6.304;2023-08-08T03:02:02;4.60;;;3.10;;
15812;SDS011;8007;51.404;6.304;2023-08-08T03:04:04;5.73;;;3.00;;
15812;SDS011;8007;51.404;6.304;2023-08-08T03:06:07;4.87;;;3.17;;
15812;SDS011;8007;51.404;6.304;2023-08-08T03:08:12;3.97;;;2.80;;
15812;SDS011;8007;51.404;6.304;2023-08-08T03:10:15;6.80;;;2.97;;
15812;SDS011;8007;51.404;6.304;2023-08-08T03:12:21;6.87;;;3.10;;
15812;SDS011;8007;51.404;6.304;2023-08-08T03:14:23;6.63;;;2.90;;
15812;SDS011;8007;51.404;6.304;2023-08-08T03:16:29;4.77;;;2.60;;
15812;SDS011;8007;51.404;6.304;2023-08-08T03:18:40;5.20;;;2.90;;
15812;SDS011;8007;51.404;6.304;2023-08-08T03:20:43;6.73;;;3.30;;
15812;SDS011;8007;51.404;6.304;2023-08-08T03:22:45;5.67;;;3.07;;
15812;SDS011;8007;51.404;6.304;2023-08-08T03:24:48;7.00;;;2.87;;
15812;SDS011;8007;51.404;6.304;2023-08-08T03:26:50;5.73;;;3.30;;
15812;SDS011;8007;51.404;6.304;2023-08-08T03:28:53;10.23;;;3.40;;
15812;SDS011;8007;51.404;6.304;2023-08-08T03:30:56;5.97;;;3.03;;
15812;SDS011;8007;51.404;6.304;2023-08-08T03:32:58;5.37;;;3.13;;
15812;SDS011;8007;51.404;6.304;2023-08-08T03:35:02;6.53;;;3.50;;
15812;SDS011;8007;51.404;6.304;2023-08-08T03:37:06;7.17;;;3.57;;
15812;SDS011;8007;51.404;6.304;2023-08-08T03:39:08;7.20;;;3.20;;
15812;SDS011;8007;51.404;6.304;2023-08-08T03:53:04;6.97;;;3.33;;
15812;SDS011;8007;51.404;6.304;2023-08-08T03:57:33;7.00;;;3.60;;
15812;SDS011;8007;51.404;6.304;2023-08-08T04:05:44;9.20;;;3.83;;
15812;SDS011;8007;51.404;6.304;2023-08-08T04:07:48;11.23;;;4.10;;
15812;SDS011;8007;51.404;6.304;2023-08-08T04:10:03;13.70;;;3.60;;
15812;SDS011;8007;51.404;6.304;2023-08-08T04:15:01;8.00;;;4.10;;
15812;SDS011;8007;51.404;6.304;2023-08-08T04:17:39;7.87;;;3.60;;
15812;SDS011;8007;51.404;6.304;2023-08-08T04:22:32;7.37;;;3.70;;
15812;SDS011;8007;51.404;6.304;2023-08-08T04:24:42;13.50;;;3.97;;
15812;SDS011;8007;51.404;6.304;2023-08-08T04:29:15;6.97;;;3.77;;
15812;SDS011;8007;51.404;6.304;2023-08-08T04:31:27;9.17;;;4.43;;
15812;SDS011;8007;51.404;6.304;2023-08-08T04:35:54;8.70;;;4.17;;
15812;SDS011;8007;51.404;6.304;2023-08-08T04:36:15;9.07;;;4.30;;
15812;SDS011;8007;51.404;6.304;2023-08-08T04:38:23;9.97;;;4.40;;
15812;SDS011;8007;51.404;6.304;2023-08-08T04:40:45;14.67;;;4.30;;
15812;SDS011;8007;51.404;6.304;2023-08-08T04:42:49;8.13;;;3.97;;
15812;SDS011;8007;51.404;6.304;2023-08-08T04:46:05;10.73;;;4.13;;
15812;SDS011;8007;51.404;6.304;2023-08-08T04:48:28;9.20;;;4.27;;
15812;SDS011;8007;51.404;6.304;2023-08-08T04:50:49;8.57;;;4.57;;
15812;SDS011;8007;51.404;6.304;2023-08-08T04:52:53;8.47;;;3.93;;
15812;SDS011;8007;51.404;6.304;2023-08-08T04:55:10;9.80;;;3.97;;
15812;SDS011;8007;51.404;6.304;2023-08-08T05:00:26;11.70;;;4.37;;
15812;SDS011;8007;51.404;6.304;2023-08-08T05:02:52;5.43;;;3.80;;
15812;SDS011;8007;51.404;6.304;2023-08-08T05:07:48;7.23;;;3.70;;
15812;SDS011;8007;51.404;6.304;2023-08-08T05:10:20;7.47;;;4.83;;
15812;SDS011;8007;51.404;6.304;2023-08-08T05:12:25;10.67;;;4.60;;
15812;SDS011;8007;51.404;6.304;2023-08-08T05:14:37;8.87;;;4.13;;
15812;SDS011;8007;51.404;6.304;2023-08-08T05:17:13;10.17;;;4.40;;
15812;SDS011;8007;51.404;6.304;2023-08-08T05:19:38;12.37;;;4.93;;
15812;SDS011;8007;51.404;6.304;2023-08-08T05:21:57;12.80;;;5.07;;
15812;SDS011;8007;51.404;6.304;2023-08-08T05:24:16;13.07;;;5.23;;
15812;SDS011;8007;51.404;6.304;2023-08-08T05:39:12;13.50;;;6.20;;
15812;SDS011;8007;51.404;6.304;2023-08-08T05:41:32;15.13;;;6.70;;
15812;SDS011;8007;51.404;6.304;2023-08-08T05:43:48;11.03;;;7.40;;
15812;SDS011;8007;51.404;6.304;2023-08-08T05:51:57;15.80;;;8.17;;
15812;SDS011;8007;51.404;6.304;2023-08-08T06:00:43;15.07;;;7.77;;
15812;SDS011;8007;51.404;6.304;2023-08-08T06:05:46;15.63;;;7.43;;
15812;SDS011;8007;51.404;6.304;2023-08-08T06:08:05;13.27;;;7.10;;
15812;SDS011;8007;51.404;6.304;2023-08-08T06:12:53;15.47;;;7.47;;
15812;SDS011;8007;51.404;6.304;2023-08-08T06:18:28;14.50;;;7.57;;
15812;SDS011;8007;51.404;6.304;2023-08-08T06:23:38;13.57;;;7.23;;
15812;SDS011;8007;51.404;6.304;2023-08-08T06:25:58;13.73;;;8.00;;
15812;SDS011;8007;51.404;6.304;2023-08-08T06:28:04;15.60;;;6.77;;
15812;SDS011;8007;51.404;6.304;2023-08-08T06:30:08;14.30;;;5.90;;
15812;SDS011;8007;51.404;6.304;2023-08-08T06:32:15;12.47;;;6.63;;
15812;SDS011;8007;51.404;6.304;2023-08-08T06:34:17;10.80;;;5.40;;
15812;SDS011;8007;51.404;6.304;2023-08-08T06:36:22;11.73;;;5.77;;
15812;SDS011;8007;51.404;6.304;2023-08-08T06:38:41;11.17;;;5.10;;
15812;SDS011;8007;51.404;6.304;2023-08-08T06:41:02;11.87;;;4.90;;
15812;SDS011;8007;51.404;6.304;2023-08-08T06:43:23;8.30;;;4.63;;
15812;SDS011;8007;51.404;6.304;2023-08-08T06:45:49;8.07;;;4.93;;
15812;SDS011;8007;51.404;6.304;2023-08-08T06:50:13;8.77;;;4.73;;
15812;SDS011;8007;51.404;6.304;2023-08-08T06:52:16;10.03;;;4.70;;
15812;SDS011;8007;51.404;6.304;2023-08-08T06:54:38;7.67;;;4.33;;
15812;SDS011;8007;51.404;6.304;2023-08-08T06:56:48;9.87;;;4.03;;
15812;SDS011;8007;51.404;6.304;2023-08-08T07:03:42;8.67;;;4.07;;
15812;SDS011;8007;51.404;6.304;2023-08-08T07:05:07;7.97;;;4.00;;
15812;SDS011;8007;51.404;6.304;2023-08-08T07:09:46;11.33;;;3.80;;
15812;SDS011;8007;51.404;6.304;2023-08-08T07:11:50;9.90;;;3.90;;
15812;SDS011;8007;51.404;6.304;2023-08-08T07:13:53;11.73;;;4.03;;
15812;SDS011;8007;51.404;6.304;2023-08-08T07:15:56;7.27;;;4.03;;
15812;SDS011;8007;51.404;6.304;2023-08-08T07:17:59;8.00;;;3.60;;
15812;SDS011;8007;51.404;6.304;2023-08-08T07:20:10;11.60;;;4.00;;
15812;SDS011;8007;51.404;6.304;2023-08-08T07:22:17;9.67;;;3.47;;
15812;SDS011;8007;51.404;6.304;2023-08-08T07:24:18;6.13;;;3.77;;
15812;SDS011;8007;51.404;6.304;2023-08-08T07:26:22;7.20;;;3.53;;
15812;SDS011;8007;51.404;6.304;2023-08-08T07:28:25;10.63;;;3.60;;
15812;SDS011;8007;51.404;6.304;2023-08-08T07:30:28;6.87;;;3.30;;
15812;SDS011;8007;51.404;6.304;2023-08-08T07:32:31;5.17;;;3.30;;
15812;SDS011;8007;51.404;6.304;2023-08-08T07:34:34;8.03;;;3.47;;
15812;SDS011;8007;51.404;6.304;2023-08-08T07:36:38;6.60;;;3.17;;
15812;SDS011;8007;51.404;6.304;2023-08-08T07:38:41;8.00;;;3.30;;
15812;SDS011;8007;51.404;6.304;2023-08-08T07:40:44;6.77;;;3.13;;
15812;SDS011;8007;51.404;6.304;2023-08-08T07:42:49;10.93;;;3.50;;
15812;SDS011;8007;51.404;6.304;2023-08-08T07:44:52;9.70;;;3.37;;
15812;SDS011;8007;51.404;6.304;2023-08-08T07:46:54;6.27;;;2.80;;
15812;SDS011;8007;51.404;6.304;2023-08-08T07:49:13;5.83;;;3.00;;
15812;SDS011;8007;51.404;6.304;2023-08-08T07:51:30;7.10;;;3.13;;
15812;SDS011;8007;51.404;6.304;2023-08-08T07:53:35;5.27;;;3.23;;
15812;SDS011;8007;51.404;6.304;2023-08-08T07:55:38;7.80;;;3.23;;
15812;SDS011;8007;51.404;6.304;2023-08-08T07:57:40;6.40;;;2.83;;
15812;SDS011;8007;51.404;6.304;2023-08-08T07:59:48;8.80;;;3.00;;
15812;SDS011;8007;51.404;6.304;2023-08-08T08:10:58;7.20;;;3.10;;
15812;SDS011;8007;51.404;6.304;2023-08-08T08:13:13;6.20;;;3.23;;
15812;SDS011;8007;51.404;6.304;2023-08-08T08:15:18;7.53;;;3.00;;
15812;SDS011;8007;51.404;6.304;2023-08-08T08:19:53;6.23;;;2.70;;
15812;SDS011;8007;51.404;6.304;2023-08-08T08:22:12;5.00;;;3.20;;
15812;SDS011;8007;51.404;6.304;2023-08-08T08:24:15;5.93;;;2.83;;
15812;SDS011;8007;51.404;6.304;2023-08-08T08:26:30;8.57;;;3.20;;
15812;SDS011;8007;51.404;6.304;2023-08-08T08:41:24;8.30;;;3.00;;
15812;SDS011;8007;51.404;6.304;2023-08-08T08:43:59;8.33;;;3.00;;
15812;SDS011;8007;51.404;6.304;2023-08-08T08:46:02;9.07;;;3.60;;
15812;SDS011;8007;51.404;6.304;2023-08-08T08:48:08;5.97;;;2.97;;
15812;SDS011;8007;51.404;6.304;2023-08-08T08:50:11;7.07;;;2.93;;
15812;SDS011;8007;51.404;6.304;2023-08-08T08:52:15;8.30;;;3.30;;
15812;SDS011;8007;51.404;6.304;2023-08-08T08:54:18;5.87;;;2.80;;
15812;SDS011;8007;51.404;6.304;2023-08-08T08:56:21;7.60;;;3.23;;
15812;SDS011;8007;51.404;6.304;2023-08-08T08:58:25;9.20;;;3.33;;
15812;SDS011;8007;51.404;6.304;2023-08-08T09:00:28;4.40;;;3.13;;
15812;SDS011;8007;51.404;6.304;2023-08-08T09:02:31;8.87;;;3.30;;
15812;SDS011;8007;51.404;6.304;2023-08-08T09:04:35;8.00;;;3.20;;
15812;SDS011;8007;51.404;6.304;2023-08-08T09:06:37;5.87;;;2.67;;
15812;SDS011;8007;51.404;6.304;2023-08-08T09:08:40;5.60;;;2.87;;
15812;SDS011;8007;51.404;6.304;2023-08-08T09:10:43;7.63;;;3.30;;
15812;SDS011;8007;51.404;6.304;2023-08-08T09:12:46;6.97;;;3.40;;
15812;SDS011;8007;51.404;6.304;2023-08-08T09:14:53;10.23;;;3.47;;
15812;SDS011;8007;51.404;6.304;2023-08-08T09:16:57;6.27;;;2.77;;
15812;SDS011;8007;51.404;6.304;2023-08-08T09:19:00;4.83;;;2.93;;
15812;SDS011;8007;51.404;6.304;2023-08-08T09:21:04;6.67;;;3.20;;
15812;SDS011;8007;51.404;6.304;2023-08-08T09:23:08;10.10;;;3.23;;
15812;SDS011;8007;51.404;6.304;2023-08-08T09:25:11;5.90;;;3.07;;
15812;SDS011;8007;51.404;6.304;2023-08-08T09:27:13;6.50;;;3.50;;
15812;SDS011;8007;51.404;6.304;2023-08-08T09:29:16;5.90;;;3.07;;
15812;SDS011;8007;51.404;6.304;2023-08-08T09:31:18;7.33;;;3.33;;
15812;SDS011;8007;51.404;6.304;2023-08-08T09:33:21;5.30;;;2.70;;
15812;SDS011;8007;51.404;6.304;2023-08-08T09:35:23;4.30;;;2.77;;
15812;SDS011;8007;51.404;6.304;2023-08-08T09:37:27;5.47;;;2.80;;
15812;SDS011;8007;51.404;6.304;2023-08-08T09:39:30;4.90;;;2.33;;
15812;SDS011;8007;51.404;6.304;2023-08-08T09:41:32;4.60;;;2.63;;
15812;SDS011;8007;51.404;6.304;2023-08-08T09:43:34;5.50;;;3.03;;
15812;SDS011;8007;51.404;6.304;2023-08-08T09:45:37;6.90;;;2.50;;
15812;SDS011;8007;51.404;6.304;2023-08-08T09:47:41;7.33;;;2.70;;
15812;SDS011;8007;51.404;6.304;2023-08-08T09:49:43;7.80;;;2.90;;
15812;SDS011;8007;51.404;6.304;2023-08-08T09:51:47;5.50;;;3.00;;
15812;SDS011;8007;51.404;6.304;2023-08-08T09:53:51;3.60;;;2.70;;
15812;SDS011;8007;51.404;6.304;2023-08-08T09:55:54;7.83;;;2.83;;
15812;SDS011;8007;51.404;6.304;2023-08-08T09:57:57;5.27;;;2.27;;
15812;SDS011;8007;51.404;6.304;2023-08-08T10:00:00;4.83;;;2.53;;
15812;SDS011;8007;51.404;6.304;2023-08-08T10:02:05;4.27;;;2.37;;
15812;SDS011;8007;51.404;6.304;2023-08-08T10:04:07;5.30;;;2.10;;
15812;SDS011;8007;51.404;6.304;2023-08-08T10:06:10;3.33;;;1.70;;
15812;SDS011;8007;51.404;6.304;2023-08-08T10:08:14;4.77;;;1.83;;
15812;SDS011;8007;51.404;6.304;2023-08-08T10:10:18;5.80;;;2.47;;
15812;SDS011;8007;51.404;6.304;2023-08-08T10:12:20;5.07;;;2.00;;
15812;SDS011;8007;51.404;6.304;2023-08-08T10:14:28;4.18;;;2.28;;
15812;SDS011;8007;51.404;6.304;2023-08-08T10:16:31;6.65;;;2.30;;
15812;SDS011;8007;51.404;6.304;2023-08-08T10:18:34;7.33;;;2.23;;
15812;SDS011;8007;51.404;6.304;2023-08-08T10:20:37;4.73;;;2.30;;
15812;SDS011;8007;51.404;6.304;2023-08-08T10:22:43;6.47;;;3.33;;
15812;SDS011;8007;51.404;6.304;2023-08-08T10:24:47;4.17;;;2.47;;
15812;SDS011;8007;51.404;6.304;2023-08-08T10:26:53;7.67;;;2.33;;
15812;SDS011;8007;51.404;6.304;2023-08-08T10:28:58;4.23;;;1.90;;
15812;SDS011;8007;51.404;6.304;2023-08-08T10:31:01;4.23;;;1.77;;
15812;SDS011;8007;51.404;6.304;2023-08-08T10:33:14;3.97;;;1.80;;
15812;SDS011;8007;51.404;6.304;2023-08-08T10:35:17;3.90;;;1.70;;
15812;SDS011;8007;51.404;6.304;2023-08-08T10:37:20;3.90;;;1.83;;
15812;SDS011;8007;51.404;6.304;2023-08-08T10:39:24;2.67;;;1.80;;
15812;SDS011;8007;51.404;6.304;2023-08-08T10:41:26;6.00;;;1.77;;
15812;SDS011;8007;51.404;6.304;2023-08-08T10:43:30;5.03;;;1.90;;
15812;SDS011;8007;51.404;6.304;2023-08-08T10:45:33;3.57;;;2.10;;
15812;SDS011;8007;51.404;6.304;2023-08-08T10:47:37;4.77;;;1.73;;
15812;SDS011;8007;51.404;6.304;2023-08-08T10:49:41;6.43;;;2.03;;
15812;SDS011;8007;51.404;6.304;2023-08-08T10:51:44;4.63;;;1.90;;
15812;SDS011;8007;51.404;6.304;2023-08-08T10:53:50;6.33;;;2.07;;
15812;SDS011;8007;51.404;6.304;2023-08-08T10:55:56;6.60;;;2.00;;
15812;SDS011;8007;51.404;6.304;2023-08-08T10:58:03;2.80;;;1.80;;
15812;SDS011;8007;51.404;6.304;2023-08-08T11:00:18;3.97;;;1.50;;
15812;SDS011;8007;51.404;6.304;2023-08-08T11:02:20;4.45;;;2.00;;
15812;SDS011;8007;51.404;6.304;2023-08-08T11:04:23;4.07;;;2.10;;
15812;SDS011;8007;51.404;6.304;2023-08-08T11:06:26;3.65;;;2.10;;
15812;SDS011;8007;51.404;6.304;2023-08-08T11:08:29;4.18;;;1.98;;
15812;SDS011;8007;51.404;6.304;2023-08-08T11:10:34;5.65;;;2.08;;
15812;SDS011;8007;51.404;6.304;2023-08-08T11:12:37;5.07;;;2.35;;
15812;SDS011;8007;51.404;6.304;2023-08-08T11:14:38;5.28;;;2.53;;
15812;SDS011;8007;51.404;6.304;2023-08-08T11:16:43;5.53;;;2.30;;
15812;SDS011;8007;51.404;6.304;2023-08-08T11:18:45;5.40;;;2.65;;
15812;SDS011;8007;51.404;6.304;2023-08-08T11:20:49;4.93;;;2.20;;
15812;SDS011;8007;51.404;6.304;2023-08-08T11:22:52;3.88;;;2.10;;
15812;SDS011;8007;51.404;6.304;2023-08-08T11:24:54;4.65;;;2.38;;
15812;SDS011;8007;51.404;6.304;2023-08-08T11:27:03;4.18;;;2.25;;
15812;SDS011;8007;51.404;6.304;2023-08-08T11:29:06;3.38;;;1.88;;
15812;SDS011;8007;51.404;6.304;2023-08-08T11:31:08;4.70;;;2.15;;
15812;SDS011;8007;51.404;6.304;2023-08-08T11:33:13;4.32;;;1.98;;
15812;SDS011;8007;51.404;6.304;2023-08-08T11:35:18;2.25;;;1.73;;
15812;SDS011;8007;51.404;6.304;2023-08-08T11:37:22;5.03;;;2.20;;
15812;SDS011;8007;51.404;6.304;2023-08-08T11:39:25;3.83;;;2.00;;
15812;SDS011;8007;51.404;6.304;2023-08-08T11:41:28;4.17;;;2.20;;
15812;SDS011;8007;51.404;6.304;2023-08-08T11:43:30;6.67;;;2.20;;
15812;SDS011;8007;51.404;6.304;2023-08-08T11:45:33;2.60;;;1.70;;
15812;SDS011;8007;51.404;6.304;2023-08-08T11:47:37;4.60;;;1.70;;
15812;SDS011;8007;51.404;6.304;2023-08-08T11:49:41;5.03;;;1.90;;
15812;SDS011;8007;51.404;6.304;2023-08-08T11:51:44;3.47;;;1.77;;
15812;SDS011;8007;51.404;6.304;2023-08-08T11:53:50;2.20;;;1.70;;
15812;SDS011;8007;51.404;6.304;2023-08-08T11:55:52;4.05;;;2.20;;
15812;SDS011;8007;51.404;6.304;2023-08-08T11:57:55;10.40;;;2.20;;
15812;SDS011;8007;51.404;6.304;2023-08-08T11:59:59;3.47;;;1.77;;
15812;SDS011;8007;51.404;6.304;2023-08-08T12:02:02;3.23;;;2.00;;
15812;SDS011;8007;51.404;6.304;2023-08-08T12:04:05;3.83;;;2.07;;
15812;SDS011;8007;51.404;6.304;2023-08-08T12:06:12;4.33;;;1.83;;
15812;SDS011;8007;51.404;6.304;2023-08-08T12:08:17;2.53;;;1.77;;
15812;SDS011;8007;51.404;6.304;2023-08-08T12:10:21;2.13;;;1.67;;
15812;SDS011;8007;51.404;6.304;2023-08-08T12:12:25;5.40;;;1.87;;
15812;SDS011;8007;51.404;6.304;2023-08-08T12:14:28;4.40;;;2.20;;
15812;SDS011;8007;51.404;6.304;2023-08-08T12:16:31;4.47;;;1.93;;
15812;SDS011;8007;51.404;6.304;2023-08-08T12:18:33;5.13;;;2.00;;
15812;SDS011;8007;51.404;6.304;2023-08-08T12:20:35;4.13;;;1.80;;
15812;SDS011;8007;51.404;6.304;2023-08-08T12:22:39;4.20;;;1.60;;
15812;SDS011;8007;51.404;6.304;2023-08-08T12:24:42;3.27;;;1.50;;
15812;SDS011;8007;51.404;6.304;2023-08-08T12:26:44;4.33;;;1.90;;
15812;SDS011;8007;51.404;6.304;2023-08-08T12:28:47;4.07;;;1.73;;
15812;SDS011;8007;51.404;6.304;2023-08-08T12:30:51;4.47;;;1.85;;
15812;SDS011;8007;51.404;6.304;2023-08-08T12:32:56;4.82;;;1.77;;
15812;SDS011;8007;51.404;6.304;2023-08-08T12:34:59;2.38;;;1.92;;
15812;SDS011;8007;51.404;6.304;2023-08-08T12:37:01;4.60;;;2.40;;
15812;SDS011;8007;51.404;6.304;2023-08-08T12:39:05;4.68;;;2.67;;
15812;SDS011;8007;51.404;6.304;2023-08-08T12:41:13;3.38;;;2.10;;
15812;SDS011;8007;51.404;6.304;2023-08-08T12:43:20;1.98;;;1.58;;
15812;SDS011;8007;51.404;6.304;2023-08-08T12:45:26;2.67;;;1.55;;
15812;SDS011;8007;51.404;6.304;2023-08-08T12:47:28;1.63;;;1.40;;
15812;SDS011;8007;51.404;6.304;2023-08-08T12:49:31;2.03;;;1.48;;
15812;SDS011;8007;51.404;6.304;2023-08-08T12:51:33;2.10;;;1.60;;
15812;SDS011;8007;51.404;6.304;2023-08-08T12:53:36;5.07;;;1.80;;
15812;SDS011;8007;51.404;6.304;2023-08-08T12:55:40;2.40;;;1.50;;
15812;SDS011;8007;51.404;6.304;2023-08-08T12:57:43;3.03;;;1.90;;
15812;SDS011;8007;51.404;6.304;2023-08-08T12:59:46;5.57;;;2.10;;
15812;SDS011;8007;51.404;6.304;2023-08-08T13:01:49;2.50;;;1.65;;
15812;SDS011;8007;51.404;6.304;2023-08-08T13:03:51;1.98;;;1.63;;
15812;SDS011;8007;51.404;6.304;2023-08-08T13:05:54;2.83;;;1.90;;
15812;SDS011;8007;51.404;6.304;2023-08-08T13:07:56;2.75;;;1.85;;
15812;SDS011;8007;51.404;6.304;2023-08-08T13:09:58;5.03;;;1.90;;
15812;SDS011;8007;51.404;6.304;2023-08-08T13:12:02;4.15;;;1.75;;
15812;SDS011;8007;51.404;6.304;2023-08-08T13:14:05;4.75;;;2.00;;
15812;SDS011;8007;51.404;6.304;2023-08-08T13:16:08;3.08;;;1.85;;
15812;SDS011;8007;51.404;6.304;2023-08-08T13:18:10;2.35;;;1.75;;
15812;SDS011;8007;51.404;6.304;2023-08-08T13:20:13;3.00;;;1.73;;
15812;SDS011;8007;51.404;6.304;2023-08-08T13:22:19;4.90;;;1.65;;
15812;SDS011;8007;51.404;6.304;2023-08-08T13:24:22;1.92;;;1.80;;
15812;SDS011;8007;51.404;6.304;2023-08-08T13:26:25;2.75;;;1.75;;
15812;SDS011;8007;51.404;6.304;2023-08-08T13:28:29;2.95;;;2.00;;
15812;SDS011;8007;51.404;6.304;2023-08-08T13:30:32;3.30;;;1.85;;
15812;SDS011;8007;51.404;6.304;2023-08-08T13:32:38;2.25;;;1.67;;
15812;SDS011;8007;51.404;6.304;2023-08-08T13:34:41;3.20;;;1.67;;
15812;SDS011;8007;51.404;6.304;2023-08-08T13:36:43;2.58;;;1.80;;
15812;SDS011;8007;51.404;6.304;2023-08-08T13:38:46;5.65;;;1.90;;
15812;SDS011;8007;51.404;6.304;2023-08-08T13:41:04;2.38;;;1.92;;
15812;SDS011;8007;51.404;6.304;2023-08-08T13:43:13;2.88;;;1.70;;
15812;SDS011;8007;51.404;6.304;2023-08-08T13:45:23;4.88;;;1.55;;
15812;SDS011;8007;51.404;6.304;2023-08-08T13:47:40;2.88;;;1.42;;
15812;SDS011;8007;51.404;6.304;2023-08-08T13:49:42;3.10;;;1.42;;
15812;SDS011;8007;51.404;6.304;2023-08-08T13:51:45;3.40;;;1.45;;
15812;SDS011;8007;51.404;6.304;2023-08-08T13:53:48;2.40;;;1.52;;
15812;SDS011;8007;51.404;6.304;2023-08-08T13:56:00;1.52;;;1.02;;
15812;SDS011;8007;51.404;6.304;2023-08-08T13:58:14;1.20;;;1.10;;
15812;SDS011;8007;51.404;6.304;2023-08-08T14:00:18;2.83;;;1.00;;
15812;SDS011;8007;51.404;6.304;2023-08-08T14:02:22;1.15;;;0.80;;
15812;SDS011;8007;51.404;6.304;2023-08-08T14:04:24;1.27;;;1.10;;
15812;SDS011;8007;51.404;6.304;2023-08-08T14:06:34;1.48;;;0.90;;
15812;SDS011;8007;51.404;6.304;2023-08-08T14:08:37;2.85;;;0.90;;
15812;SDS011;8007;51.404;6.304;2023-08-08T14:10:40;0.95;;;0.82;;
15812;SDS011;8007;51.404;6.304;2023-08-08T14:12:42;1.83;;;0.88;;
15812;SDS011;8007;51.404;6.304;2023-08-08T14:14:45;1.88;;;0.68;;
15812;SDS011;8007;51.404;6.304;2023-08-08T14:16:49;0.93;;;0.75;;
15812;SDS011;8007;51.404;6.304;2023-08-08T14:18:51;1.50;;;0.73;;
15812;SDS011;8007;51.404;6.304;2023-08-08T14:20:54;1.85;;;1.15;;
15812;SDS011;8007;51.404;6.304;2023-08-08T14:22:56;1.80;;;0.60;;
15812;SDS011;8007;51.404;6.304;2023-08-08T14:24:59;1.88;;;0.80;;
15812;SDS011;8007;51.404;6.304;2023-08-08T14:27:02;1.75;;;0.82;;
15812;SDS011;8007;51.404;6.304;2023-08-08T14:29:04;1.48;;;0.70;;
15812;SDS011;8007;51.404;6.304;2023-08-08T14:31:06;2.42;;;0.93;;
15812;SDS011;8007;51.404;6.304;2023-08-08T14:33:09;1.38;;;1.05;;
15812;SDS011;8007;51.404;6.304;2023-08-08T14:35:12;4.60;;;0.90;;
15812;SDS011;8007;51.404;6.304;2023-08-08T14:37:14;1.15;;;0.80;;
15812;SDS011;8007;51.404;6.304;2023-08-08T14:39:17;1.58;;;0.80;;
15812;SDS011;8007;51.404;6.304;2023-08-08T14:41:19;1.08;;;0.60;;
15812;SDS011;8007;51.404;6.304;2023-08-08T14:43:22;3.47;;;0.88;;
15812;SDS011;8007;51.404;6.304;2023-08-08T14:45:25;0.93;;;0.70;;
15812;SDS011;8007;51.404;6.304;2023-08-08T14:47:26;0.85;;;0.75;;
15812;SDS011;8007;51.404;6.304;2023-08-08T14:49:30;0.80;;;0.52;;
15812;SDS011;8007;51.404;6.304;2023-08-08T14:51:33;1.02;;;0.80;;
15812;SDS011;8007;51.404;6.304;2023-08-08T14:53:36;1.08;;;0.60;;
15812;SDS011;8007;51.404;6.304;2023-08-08T14:55:38;3.05;;;0.95;;
15812;SDS011;8007;51.404;6.304;2023-08-08T14:57:41;2.45;;;0.77;;
15812;SDS011;8007;51.404;6.304;2023-08-08T14:59:43;5.75;;;0.90;;
15812;SDS011;8007;51.404;6.304;2023-08-08T15:01:46;1.35;;;0.90;;
15812;SDS011;8007;51.404;6.304;2023-08-08T15:03:49;2.58;;;0.85;;
15812;SDS011;8007;51.404;6.304;2023-08-08T15:08:27;1.85;;;1.00;;
15812;SDS011;8007;51.404;6.304;2023-08-08T15:10:32;3.78;;;1.15;;
15812;SDS011;8007;51.404;6.304;2023-08-08T15:12:35;1.63;;;1.10;;
15812;SDS011;8007;51.404;6.304;2023-08-08T15:14:38;3.70;;;1.30;;
15812;SDS011;8007;51.404;6.304;2023-08-08T15:16:40;3.95;;;1.10;;
15812;SDS011;8007;51.404;6.304;2023-08-08T15:18:43;1.35;;;1.10;;
15812;SDS011;8007;51.404;6.304;2023-08-08T15:20:45;1.10;;;1.00;;
15812;SDS011;8007;51.404;6.304;2023-08-08T15:22:49;2.00;;;0.82;;
15812;SDS011;8007;51.404;6.304;2023-08-08T15:24:52;1.25;;;0.88;;
15812;SDS011;8007;51.404;6.304;2023-08-08T15:26:54;2.92;;;1.23;;
15812;SDS011;8007;51.404;6.304;2023-08-08T15:28:56;2.30;;;1.20;;
15812;SDS011;8007;51.404;6.304;2023-08-08T15:30:59;2.85;;;1.25;;
15812;SDS011;8007;51.404;6.304;2023-08-08T15:33:02;1.10;;;1.00;;
15812;SDS011;8007;51.404;6.304;2023-08-08T15:35:05;2.30;;;1.10;;
15812;SDS011;8007;51.404;6.304;2023-08-08T15:37:08;1.80;;;1.10;;
15812;SDS011;8007;51.404;6.304;2023-08-08T15:39:13;1.05;;;0.90;;
15812;SDS011;8007;51.404;6.304;2023-08-08T15:41:16;1.80;;;1.30;;